Time;durP1;ratioP1;P1;durP2;ratioP2;P2;SDS_P1;SDS_P2;PMS_P1;PMS_P2;Temp;Humidity;BMP_temperature;BMP_pressure;BME280_temperature;BME280_humidity;BME280_pressure;Samples;Min_cycle;Max_cycle;Signal;HPM_P1;HPM_P2
2022/09/28 00:03:22;;;;;;;1.70;1.02;;;;;;;;;;10367028;28;20034;-55
2022/09/28 00:08:23;;;;;;;4.53;1.00;;;;;;;;;;10373785;28;20030;-53
2022/09/28 00:13:24;;;;;;;1.75;1.20;;;;;;;;;;10372918;28;20137;-64
2022/09/28 00:18:24;;;;;;;1.92;1.00;;;;;;;;;;10373747;28;20041;-60
2022/09/28 00:23:25;;;;;;;2.30;1.08;;;;;;;;;;10369287;28;20091;-54
2022/09/28 00:28:25;;;;;;;1.88;1.20;;;;;;;;;;10367260;28;20034;-59
2022/09/28 00:33:26;;;;;;;1.85;1.23;;;;;;;;;;10355814;28;20584;-56
2022/09/28 00:38:29;;;;;;;1.48;1.00;;;;;;;;;;10373185;28;20481;-53
2022/09/28 00:43:29;;;;;;;2.85;1.45;;;;;;;;;;10372357;28;20489;-62
2022/09/28 00:48:38;;;;;;;4.55;1.48;;;;;;;;;;10364150;28;20034;-60
2022/09/28 00:53:42;;;;;;;2.47;1.33;;;;;;;;;;10358875;28;20379;-62
2022/09/28 00:58:47;;;;;;;1.30;0.90;;;;;;;;;;10370627;28;20033;-56
2022/09/28 01:03:47;;;;;;;4.05;1.10;;;;;;;;;;10367261;28;20037;-55
2022/09/28 01:08:51;;;;;;;3.42;1.00;;;;;;;;;;10367091;28;20352;-57
2022/09/28 01:13:55;;;;;;;1.85;1.35;;;;;;;;;;10366890;28;20053;-59
2022/09/28 01:19:31;;;;;;;1.85;0.90;;;;;;;;;;10371151;28;20033;-56
2022/09/28 01:25:10;;;;;;;3.42;1.40;;;;;;;;;;10365328;28;20030;-55
2022/09/28 01:30:17;;;;;;;1.20;0.85;;;;;;;;;;10369798;28;20095;-60
2022/09/28 01:35:28;;;;;;;1.25;0.80;;;;;;;;;;10369502;28;20461;-58
2022/09/28 01:40:32;;;;;;;1.20;1.05;;;;;;;;;;10368932;28;20046;-54
2022/09/28 01:45:45;;;;;;;1.58;1.13;;;;;;;;;;10370009;28;20121;-56
2022/09/28 01:50:49;;;;;;;1.65;1.20;;;;;;;;;;10369803;28;20037;-57
2022/09/28 01:55:56;;;;;;;1.55;1.00;;;;;;;;;;10366785;28;20466;-51
2022/09/28 02:01:03;;;;;;;1.30;1.00;;;;;;;;;;10366981;28;20034;-49
2022/09/28 02:06:21;;;;;;;2.55;1.38;;;;;;;;;;10369804;28;20041;-61
2022/09/28 02:11:22;;;;;;;1.65;1.17;;;;;;;;;;10368284;28;20042;-56
2022/09/28 02:16:48;;;;;;;1.65;1.10;;;;;;;;;;10368001;28;20149;-52
2022/09/28 02:22:28;;;;;;;2.78;1.13;;;;;;;;;;10367861;28;20117;-50
2022/09/28 02:28:09;;;;;;;2.10;1.10;;;;;;;;;;10328281;28;20478;-60
2022/09/28 02:33:28;;;;;;;2.33;0.95;;;;;;;;;;10217722;28;20082;-62
2022/09/28 02:38:30;;;;;;;1.90;1.08;;;;;;;;;;10226517;28;20067;-54
2022/09/28 02:43:48;;;;;;;1.83;0.82;;;;;;;;;;10241307;28;20093;-62
2022/09/28 02:49:32;;;;;;;3.75;1.00;;;;;;;;;;10243215;28;20069;-58
2022/09/28 02:55:14;;;;;;;2.22;0.90;;;;;;;;;;10245359;28;20406;-63
2022/09/28 03:00:20;;;;;;;5.07;1.33;;;;;;;;;;10269600;28;20105;-62
2022/09/28 03:05:59;;;;;;;3.78;0.93;;;;;;;;;;10366221;28;20084;-64
2022/09/28 03:11:27;;;;;;;1.77;1.02;;;;;;;;;;10367118;28;20026;-62
2022/09/28 03:16:30;;;;;;;3.35;1.10;;;;;;;;;;10366337;28;20111;-65
2022/09/28 03:21:31;;;;;;;1.27;1.00;;;;;;;;;;10367214;28;20405;-64
2022/09/28 03:26:32;;;;;;;1.10;0.95;;;;;;;;;;10367398;28;20045;-65
2022/09/28 03:31:33;;;;;;;3.33;0.82;;;;;;;;;;10366900;28;20026;-65
2022/09/28 03:36:34;;;;;;;1.58;0.98;;;;;;;;;;10353326;28;20034;-62
2022/09/28 03:41:35;;;;;;;1.20;0.90;;;;;;;;;;10374366;28;20481;-59
2022/09/28 03:46:35;;;;;;;1.42;1.00;;;;;;;;;;10374139;28;20034;-56
2022/09/28 03:51:36;;;;;;;3.00;0.90;;;;;;;;;;10375038;28;20362;-56
2022/09/28 03:56:36;;;;;;;1.33;0.93;;;;;;;;;;10374358;28;20029;-56
2022/09/28 04:01:37;;;;;;;2.95;0.90;;;;;;;;;;10374794;28;20076;-59
2022/09/28 04:06:37;;;;;;;1.98;1.17;;;;;;;;;;10373109;28;20053;-63
2022/09/28 04:11:38;;;;;;;3.10;1.00;;;;;;;;;;10374051;28;20616;-61
2022/09/28 04:16:39;;;;;;;0.90;0.90;;;;;;;;;;10373580;28;20462;-58
2022/09/28 04:21:39;;;;;;;2.53;1.10;;;;;;;;;;10374439;28;20026;-55
2022/09/28 04:26:40;;;;;;;0.85;0.85;;;;;;;;;;10373267;28;20045;-64
2022/09/28 04:31:48;;;;;;;0.70;0.70;;;;;;;;;;10372939;28;20030;-64
2022/09/28 04:36:49;;;;;;;1.77;1.10;;;;;;;;;;10375935;28;20276;-61
2022/09/28 04:41:50;;;;;;;2.85;0.90;;;;;;;;;;10372463;28;20295;-56
2022/09/28 04:46:50;;;;;;;1.48;0.98;;;;;;;;;;10372090;28;20389;-55
2022/09/28 04:51:51;;;;;;;1.58;0.90;;;;;;;;;;10372186;28;20040;-65
2022/09/28 04:56:52;;;;;;;2.47;1.10;;;;;;;;;;10359856;28;20467;-64
2022/09/28 05:01:52;;;;;;;1.33;1.10;;;;;;;;;;10370280;28;20041;-64
2022/09/28 05:06:53;;;;;;;1.05;0.90;;;;;;;;;;10371358;28;20458;-59
2022/09/28 05:11:54;;;;;;;1.30;0.82;;;;;;;;;;10371414;28;20072;-54
2022/09/28 05:16:54;;;;;;;1.75;1.05;;;;;;;;;;10371303;28;20116;-63
2022/09/28 05:21:56;;;;;;;0.90;0.90;;;;;;;;;;10371054;28;20116;-60
2022/09/28 05:26:57;;;;;;;0.98;0.82;;;;;;;;;;10366680;28;20562;-54
2022/09/28 05:32:00;;;;;;;2.17;0.90;;;;;;;;;;10368690;28;20073;-50
2022/09/28 05:37:00;;;;;;;1.75;1.20;;;;;;;;;;10370405;28;20033;-54
2022/09/28 05:42:01;;;;;;;2.30;0.90;;;;;;;;;;10368829;28;20095;-52
2022/09/28 05:47:01;;;;;;;1.67;1.05;;;;;;;;;;10361949;28;20033;-63
2022/09/28 05:52:02;;;;;;;6.85;1.10;;;;;;;;;;10370052;28;20469;-59
2022/09/28 05:57:05;;;;;;;1.52;1.05;;;;;;;;;;10370251;28;20477;-58
2022/09/28 06:02:06;;;;;;;0.90;0.90;;;;;;;;;;10367734;28;20036;-55
2022/09/28 06:07:07;;;;;;;3.97;1.02;;;;;;;;;;10369410;28;20496;-56
2022/09/28 06:12:07;;;;;;;4.88;1.40;;;;;;;;;;10368964;28;20045;-58
2022/09/28 06:17:08;;;;;;;2.92;1.00;;;;;;;;;;10356112;28;20230;-61
2022/09/28 06:22:08;;;;;;;1.95;1.10;;;;;;;;;;10356246;28;20034;-57
2022/09/28 06:27:09;;;;;;;5.57;1.35;;;;;;;;;;10368515;28;20029;-55
2022/09/28 06:32:11;;;;;;;5.30;1.30;;;;;;;;;;10368287;28;20022;-51
2022/09/28 06:37:11;;;;;;;1.73;1.17;;;;;;;;;;10367664;28;20030;-55
2022/09/28 06:42:12;;;;;;;5.20;1.40;;;;;;;;;;10366577;28;20032;-57
2022/09/28 06:47:13;;;;;;;7.30;1.30;;;;;;;;;;10367207;28;20017;-56
2022/09/28 06:52:17;;;;;;;4.03;1.25;;;;;;;;;;10366680;28;20996;-53
2022/09/28 06:57:18;;;;;;;1.88;1.17;;;;;;;;;;10364816;28;20022;-63
2022/09/28 07:02:19;;;;;;;4.70;1.10;;;;;;;;;;10366999;28;20041;-57
2022/09/28 07:07:19;;;;;;;2.08;1.20;;;;;;;;;;10364282;28;20143;-61
2022/09/28 07:12:23;;;;;;;2.28;1.08;;;;;;;;;;10367235;28;20042;-64
2022/09/28 07:17:24;;;;;;;5.65;1.20;;;;;;;;;;10367522;28;20453;-63
2022/09/28 07:22:24;;;;;;;16.33;1.73;;;;;;;;;;10366706;28;20033;-67
2022/09/28 07:27:25;;;;;;;2.75;1.20;;;;;;;;;;10366868;28;20033;-66
2022/09/28 07:32:26;;;;;;;4.60;1.35;;;;;;;;;;10365690;28;20057;-67
2022/09/28 07:37:27;;;;;;;4.95;1.00;;;;;;;;;;10366842;28;20030;-62
2022/09/28 07:42:29;;;;;;;6.85;1.40;;;;;;;;;;10358111;28;20456;-65
2022/09/28 07:47:30;;;;;;;9.23;1.50;;;;;;;;;;10359938;28;20038;-63
2022/09/28 07:52:34;;;;;;;6.63;1.50;;;;;;;;;;10362614;28;20069;-63
2022/09/28 07:57:35;;;;;;;7.35;1.10;;;;;;;;;;10366564;28;20065;-61
2022/09/28 08:02:36;;;;;;;3.47;1.33;;;;;;;;;;10357613;28;20026;-65
2022/09/28 08:07:37;;;;;;;6.40;1.40;;;;;;;;;;10362789;28;20549;-63
2022/09/28 08:12:39;;;;;;;2.25;1.20;;;;;;;;;;10358147;28;20065;-64
2022/09/28 08:17:46;;;;;;;4.38;1.42;;;;;;;;;;10360871;28;20048;-66
2022/09/28 08:22:47;;;;;;;4.50;1.42;;;;;;;;;;10364236;28;20026;-66
2022/09/28 08:27:48;;;;;;;2.42;1.60;;;;;;;;;;10369906;28;20029;-66
2022/09/28 08:32:49;;;;;;;1.58;1.13;;;;;;;;;;10372123;28;20393;-65
2022/09/28 08:37:52;;;;;;;1.15;0.90;;;;;;;;;;10344106;28;20026;-66
2022/09/28 08:43:03;;;;;;;2.25;1.00;;;;;;;;;;10371463;28;20414;-66
2022/09/28 08:48:47;;;;;;;3.85;1.13;;;;;;;;;;10358072;28;20025;-64
2022/09/28 08:54:12;;;;;;;2.88;1.15;;;;;;;;;;10368438;28;20036;-63
2022/09/28 08:59:21;;;;;;;1.30;0.95;;;;;;;;;;10333651;28;20460;-61
2022/09/28 09:04:22;;;;;;;3.72;1.33;;;;;;;;;;10353127;28;20045;-64
2022/09/28 09:09:31;;;;;;;3.58;1.48;;;;;;;;;;10367689;28;20030;-63
2022/09/28 09:14:49;;;;;;;3.75;1.15;;;;;;;;;;10365356;28;20056;-66
2022/09/28 09:19:52;;;;;;;4.13;0.95;;;;;;;;;;10368602;28;20046;-64
2022/09/28 09:25:20;;;;;;;1.63;1.20;;;;;;;;;;10371150;28;20373;-64
2022/09/28 09:30:21;;;;;;;2.75;0.98;;;;;;;;;;10347044;28;20025;-65
2022/09/28 09:36:03;;;;;;;1.58;1.02;;;;;;;;;;10359117;28;20065;-66
2022/09/28 09:41:25;;;;;;;1.55;1.05;;;;;;;;;;10358688;28;20417;-64
2022/09/28 09:46:48;;;;;;;2.42;1.23;;;;;;;;;;10360465;28;20034;-63
2022/09/28 09:52:13;;;;;;;1.60;1.10;;;;;;;;;;10361899;28;20554;-66
2022/09/28 09:57:20;;;;;;;4.05;0.90;;;;;;;;;;10357162;28;20026;-66
2022/09/28 10:02:29;;;;;;;2.88;0.90;;;;;;;;;;10367965;28;20060;-66
2022/09/28 10:07:48;;;;;;;2.58;1.23;;;;;;;;;;10370054;28;20036;-63
2022/09/28 10:12:50;;;;;;;2.65;1.20;;;;;;;;;;10352105;28;20107;-66
2022/09/28 10:17:54;;;;;;;1.20;1.00;;;;;;;;;;10366942;28;20040;-64
2022/09/28 10:23:01;;;;;;;0.98;0.90;;;;;;;;;;10359623;28;20512;-66
2022/09/28 10:28:05;;;;;;;1.13;0.93;;;;;;;;;;10366711;28;20017;-62
2022/09/28 10:33:30;;;;;;;2.88;1.00;;;;;;;;;;10363125;28;20460;-54
2022/09/28 10:38:32;;;;;;;3.38;1.00;;;;;;;;;;10367325;28;20030;-54
2022/09/28 10:43:37;;;;;;;1.30;1.00;;;;;;;;;;10355392;28;20042;-62
2022/09/28 10:49:13;;;;;;;1.50;0.82;;;;;;;;;;10365990;28;20033;-56
2022/09/28 10:54:17;;;;;;;1.35;1.00;;;;;;;;;;10364603;28;20040;-59
2022/09/28 10:59:29;;;;;;;3.80;1.08;;;;;;;;;;10366321;28;20458;-54
2022/09/28 11:04:40;;;;;;;3.10;1.23;;;;;;;;;;10362243;28;20022;-53
2022/09/28 11:09:41;;;;;;;1.50;1.05;;;;;;;;;;10364819;28;20035;-63
2022/09/28 11:14:43;;;;;;;1.13;0.70;;;;;;;;;;10366161;28;20077;-63
2022/09/28 11:19:44;;;;;;;2.17;1.10;;;;;;;;;;10365234;28;20169;-62
2022/09/28 11:24:46;;;;;;;1.60;0.98;;;;;;;;;;10365782;28;20033;-61
2022/09/28 11:29:57;;;;;;;1.55;1.00;;;;;;;;;;10367413;28;20038;-58
2022/09/28 11:34:59;;;;;;;1.88;0.77;;;;;;;;;;10365832;28;20026;-64
2022/09/28 11:40:32;;;;;;;1.67;0.90;;;;;;;;;;10362132;28;20424;-61
2022/09/28 11:45:53;;;;;;;1.05;0.95;;;;;;;;;;10363130;28;20140;-58
2022/09/28 11:51:04;;;;;;;1.20;0.85;;;;;;;;;;10364430;28;20496;-63
2022/09/28 11:56:32;;;;;;;3.60;1.30;;;;;;;;;;10353140;28;20030;-60
2022/09/28 12:01:56;;;;;;;2.10;0.90;;;;;;;;;;10362183;28;20047;-63
2022/09/28 12:07:09;;;;;;;4.05;1.05;;;;;;;;;;10358868;28;20057;-61
2022/09/28 12:12:46;;;;;;;1.85;0.98;;;;;;;;;;10365545;28;20033;-65
2022/09/28 12:18:21;;;;;;;4.13;1.25;;;;;;;;;;10366303;28;20034;-57
2022/09/28 12:23:34;;;;;;;2.47;1.08;;;;;;;;;;10358516;28;20050;-58
2022/09/28 12:28:43;;;;;;;1.63;0.90;;;;;;;;;;10371529;28;20555;-56
2022/09/28 12:33:49;;;;;;;2.83;1.25;;;;;;;;;;10368108;28;20045;-55
2022/09/28 12:39:11;;;;;;;4.32;1.30;;;;;;;;;;10375178;28;20030;-51
2022/09/28 12:44:37;;;;;;;2.20;1.10;;;;;;;;;;10378397;28;20057;-67
2022/09/28 12:50:26;;;;;;;3.40;1.27;;;;;;;;;;10362850;28;20030;-66
2022/09/28 12:56:08;;;;;;;3.45;1.00;;;;;;;;;;10372079;28;20520;-62
2022/09/28 13:01:45;;;;;;;3.03;1.10;;;;;;;;;;10367813;28;20101;-53
2022/09/28 13:06:57;;;;;;;2.60;1.10;;;;;;;;;;10364389;28;20026;-66
2022/09/28 13:12:33;;;;;;;2.95;1.00;;;;;;;;;;10366952;28;20025;-65
2022/09/28 13:18:00;;;;;;;1.65;0.85;;;;;;;;;;10368233;28;20496;-62
2022/09/28 13:23:42;;;;;;;3.17;1.17;;;;;;;;;;10370016;28;20500;-65
2022/09/28 13:28:45;;;;;;;2.50;1.27;;;;;;;;;;10358410;28;20045;-65
2022/09/28 13:33:47;;;;;;;2.05;0.90;;;;;;;;;;10357389;28;20033;-66
2022/09/28 13:38:48;;;;;;;2.80;1.13;;;;;;;;;;10355253;28;20057;-64
2022/09/28 13:43:49;;;;;;;1.40;0.88;;;;;;;;;;10370075;28;20045;-64
2022/09/28 13:49:45;;;;;;;1.38;0.90;;;;;;;;;;10370866;28;20054;-64
2022/09/28 13:55:00;;;;;;;1.55;0.90;;;;;;;;;;10368058;28;20069;-63
2022/09/28 14:00:14;;;;;;;3.90;1.35;;;;;;;;;;10368908;28;20087;-52
2022/09/28 14:05:42;;;;;;;1.30;1.00;;;;;;;;;;10357376;28;20022;-53
2022/09/28 14:11:13;;;;;;;2.42;1.10;;;;;;;;;;10365373;28;20523;-55
2022/09/28 14:16:17;;;;;;;0.98;0.85;;;;;;;;;;10361701;28;20046;-54
2022/09/28 14:21:48;;;;;;;1.95;1.15;;;;;;;;;;10369509;28;20049;-53
2022/09/28 14:27:10;;;;;;;1.95;1.13;;;;;;;;;;10368105;28;20018;-55
2022/09/28 14:32:10;;;;;;;2.28;0.90;;;;;;;;;;10353876;28;20021;-52
2022/09/28 14:43:38;;;;;;;2.67;0.98;;;;;;;;;;10354789;28;20124;-51
2022/09/28 14:49:00;;;;;;;2.22;0.88;;;;;;;;;;10355493;28;20034;-49
2022/09/28 14:54:06;;;;;;;2.13;1.10;;;;;;;;;;10358356;28;20026;-51
2022/09/28 14:59:17;;;;;;;2.72;1.20;;;;;;;;;;10368086;28;20018;-52
2022/09/28 15:04:18;;;;;;;1.60;1.02;;;;;;;;;;10366350;28;20374;-51
2022/09/28 15:09:38;;;;;;;2.58;1.05;;;;;;;;;;10367186;28;20092;-52
2022/09/28 15:14:49;;;;;;;6.32;1.20;;;;;;;;;;10356829;28;20509;-57
2022/09/28 15:20:09;;;;;;;1.20;1.00;;;;;;;;;;10365123;28;20034;-63
2022/09/28 15:25:18;;;;;;;2.42;0.88;;;;;;;;;;10358212;28;20064;-63
2022/09/28 15:30:35;;;;;;;2.25;1.30;;;;;;;;;;10367134;28;20113;-63
2022/09/28 15:35:37;;;;;;;1.75;0.90;;;;;;;;;;10371469;28;20026;-65
2022/09/28 15:40:41;;;;;;;3.28;1.10;;;;;;;;;;10372845;28;20049;-55
2022/09/28 15:45:43;;;;;;;1.05;0.95;;;;;;;;;;10373058;28;20113;-61
2022/09/28 15:51:11;;;;;;;6.22;1.05;;;;;;;;;;10372867;28;20105;-56
2022/09/28 15:56:12;;;;;;;1.55;1.13;;;;;;;;;;10367130;28;20034;-60
2022/09/28 16:01:35;;;;;;;3.38;1.20;;;;;;;;;;10367865;28;20046;-65
2022/09/28 16:06:35;;;;;;;3.40;0.82;;;;;;;;;;10365711;28;20029;-61
2022/09/28 16:11:38;;;;;;;2.67;0.95;;;;;;;;;;10373928;28;20029;-55
2022/09/28 16:16:49;;;;;;;6.47;1.05;;;;;;;;;;10374160;28;20080;-53
2022/09/28 16:21:58;;;;;;;1.40;1.10;;;;;;;;;;10370797;28;20474;-56
2022/09/28 16:27:37;;;;;;;1.23;0.82;;;;;;;;;;10361486;28;20030;-59
2022/09/28 16:32:51;;;;;;;2.75;1.30;;;;;;;;;;10370947;28;20041;-58
2022/09/28 16:38:14;;;;;;;1.85;0.98;;;;;;;;;;10363680;28;20041;-56
2022/09/28 16:43:27;;;;;;;1.90;1.00;;;;;;;;;;10361694;28;20029;-57
2022/09/28 16:48:30;;;;;;;2.33;0.93;;;;;;;;;;10360034;28;20026;-60
2022/09/28 16:58:50;;;;;;;1.90;1.10;;;;;;;;;;10365905;28;20469;-62
2022/09/28 17:03:51;;;;;;;2.88;1.00;;;;;;;;;;10362599;28;20027;-58
2022/09/28 17:08:55;;;;;;;1.05;0.90;;;;;;;;;;10372491;28;20022;-54
2022/09/28 17:13:57;;;;;;;3.42;1.35;;;;;;;;;;10367412;23;20046;-46
2022/09/28 17:18:59;;;;;;;3.10;1.40;;;;;;;;;;10335849;28;20026;-49
2022/09/28 17:24:00;;;;;;;1.20;1.10;;;;;;;;;;10359670;28;20068;-45
2022/09/28 17:29:00;;;;;;;1.08;0.93;;;;;;;;;;10364846;28;20108;-46
2022/09/28 17:34:01;;;;;;;2.03;1.10;;;;;;;;;;10368622;28;20585;-46
2022/09/28 17:39:02;;;;;;;1.10;1.00;;;;;;;;;;10374522;28;20049;-45
2022/09/28 17:44:03;;;;;;;3.42;1.08;;;;;;;;;;10367325;28;20037;-46
2022/09/28 17:49:06;;;;;;;6.90;0.95;;;;;;;;;;10368383;28;20022;-46
2022/09/28 17:54:07;;;;;;;3.17;0.90;;;;;;;;;;10367383;28;20030;-46
2022/09/28 17:59:12;;;;;;;1.55;0.88;;;;;;;;;;10367796;28;20034;-50
2022/09/28 18:04:14;;;;;;;1.63;1.15;;;;;;;;;;10364143;28;20026;-45
2022/09/28 18:09:15;;;;;;;1.83;0.98;;;;;;;;;;10366050;28;20540;-45
2022/09/28 18:14:16;;;;;;;3.78;0.95;;;;;;;;;;10366067;28;20112;-48
2022/09/28 18:19:16;;;;;;;1.92;1.08;;;;;;;;;;10368598;28;20030;-45
2022/09/28 18:24:17;;;;;;;3.47;0.95;;;;;;;;;;10367149;28;20041;-47
2022/09/28 18:29:17;;;;;;;1.20;1.10;;;;;;;;;;10368464;28;20044;-56
2022/09/28 18:34:18;;;;;;;1.85;1.05;;;;;;;;;;10366329;28;20046;-47
2022/09/28 18:39:19;;;;;;;4.32;1.33;;;;;;;;;;10364942;28;20084;-46
2022/09/28 18:44:19;;;;;;;8.30;1.50;;;;;;;;;;10366623;28;20025;-46
2022/09/28 18:49:21;;;;;;;4.05;1.30;;;;;;;;;;10357117;28;20091;-46
2022/09/28 18:54:22;;;;;;;2.80;1.10;;;;;;;;;;10361536;28;20480;-46
2022/09/28 18:59:23;;;;;;;4.93;1.35;;;;;;;;;;10365908;28;20030;-46
2022/09/28 19:04:24;;;;;;;2.53;1.20;;;;;;;;;;10357592;28;20033;-47
2022/09/28 19:09:25;;;;;;;2.40;1.00;;;;;;;;;;10348038;28;20030;-46
2022/09/28 19:14:27;;;;;;;2.65;1.30;;;;;;;;;;10351578;28;20470;-46
2022/09/28 19:19:28;;;;;;;4.00;1.20;;;;;;;;;;10352553;28;20031;-46
2022/09/28 19:24:29;;;;;;;2.60;1.20;;;;;;;;;;10367328;28;20125;-46
2022/09/28 19:29:30;;;;;;;7.75;1.40;;;;;;;;;;10353330;28;20034;-46
2022/09/28 19:34:30;;;;;;;3.60;1.35;;;;;;;;;;10367436;28;20496;-46
2022/09/28 19:39:31;;;;;;;3.92;0.98;;;;;;;;;;10366517;28;20497;-46
2022/09/28 19:44:32;;;;;;;3.17;1.45;;;;;;;;;;10366337;28;20060;-46
2022/09/28 19:49:39;;;;;;;2.03;1.20;;;;;;;;;;10366745;28;20492;-47
2022/09/28 19:54:43;;;;;;;2.38;1.17;;;;;;;;;;10365175;28;20021;-47
2022/09/28 19:59:43;;;;;;;3.80;1.17;;;;;;;;;;10366117;28;20485;-46
2022/09/28 20:04:44;;;;;;;3.58;1.35;;;;;;;;;;10366943;28;20030;-47
2022/09/28 20:09:45;;;;;;;6.78;1.30;;;;;;;;;;10352993;28;20033;-46
2022/09/28 20:14:45;;;;;;;1.35;1.05;;;;;;;;;;10351793;28;20042;-46
2022/09/28 20:19:46;;;;;;;2.30;1.08;;;;;;;;;;10365851;28;20030;-47
2022/09/28 20:24:47;;;;;;;3.38;1.17;;;;;;;;;;10374062;28;20017;-46
2022/09/28 20:29:48;;;;;;;5.82;1.33;;;;;;;;;;10373299;28;20022;-46
2022/09/28 20:34:48;;;;;;;5.25;1.00;;;;;;;;;;10374097;28;20030;-47
2022/09/28 20:39:49;;;;;;;2.30;1.02;;;;;;;;;;10373070;28;20030;-46
2022/09/28 20:44:50;;;;;;;3.10;1.05;;;;;;;;;;10372909;28;20049;-48
2022/09/28 20:49:50;;;;;;;1.38;1.13;;;;;;;;;;10373632;28;20040;-46
2022/09/28 20:54:51;;;;;;;1.08;0.98;;;;;;;;;;10372821;28;20030;-46
2022/09/28 20:59:51;;;;;;;4.30;1.30;;;;;;;;;;10359165;28;20624;-46
2022/09/28 21:04:52;;;;;;;1.20;1.10;;;;;;;;;;10371442;28;20496;-46
2022/09/28 21:09:53;;;;;;;2.92;1.20;;;;;;;;;;10362484;28;20125;-56
2022/09/28 21:14:54;;;;;;;2.38;1.10;;;;;;;;;;10348789;28;20509;-47
2022/09/28 21:19:54;;;;;;;5.43;1.15;;;;;;;;;;10365304;28;20049;-46
2022/09/28 21:24:55;;;;;;;3.58;1.00;;;;;;;;;;10368804;28;20045;-46
2022/09/28 21:29:56;;;;;;;1.20;1.08;;;;;;;;;;10368841;28;20090;-46
2022/09/28 21:34:57;;;;;;;6.25;1.60;;;;;;;;;;10366167;28;20037;-46
2022/09/28 21:39:58;;;;;;;7.63;1.73;;;;;;;;;;10366335;28;20026;-46
2022/09/28 21:44:58;;;;;;;6.60;2.05;;;;;;;;;;10369216;28;20124;-46
2022/09/28 21:50:00;;;;;;;4.57;1.85;;;;;;;;;;10368823;28;20042;-47
2022/09/28 21:55:02;;;;;;;7.93;2.13;;;;;;;;;;10367690;28;20029;-47
2022/09/28 22:00:03;;;;;;;5.47;2.65;;;;;;;;;;10368097;28;20092;-46
2022/09/28 22:05:05;;;;;;;6.57;2.28;;;;;;;;;;10368106;28;20393;-46
2022/09/28 22:10:09;;;;;;;4.78;2.03;;;;;;;;;;10361785;28;20112;-46
2022/09/28 22:15:10;;;;;;;5.90;2.15;;;;;;;;;;10366783;28;20441;-46
2022/09/28 22:20:10;;;;;;;4.55;1.88;;;;;;;;;;10365015;28;20033;-47
2022/09/28 22:25:11;;;;;;;5.47;1.85;;;;;;;;;;10367720;28;20037;-46
2022/09/28 22:30:12;;;;;;;5.85;2.10;;;;;;;;;;10366608;28;20034;-47
2022/09/28 22:35:13;;;;;;;3.72;2.03;;;;;;;;;;10364934;28;20058;-47
2022/09/28 22:40:13;;;;;;;2.83;1.80;;;;;;;;;;10359542;28;20030;-46
2022/09/28 22:45:14;;;;;;;8.73;2.00;;;;;;;;;;10363665;28;20897;-47
2022/09/28 22:50:14;;;;;;;5.70;2.00;;;;;;;;;;10361477;28;20021;-47
2022/09/28 22:55:15;;;;;;;6.18;2.05;;;;;;;;;;10367317;28;20040;-47
2022/09/28 23:00:16;;;;;;;16.80;2.35;;;;;;;;;;10366865;28;20033;-46
2022/09/28 23:05:17;;;;;;;3.97;1.98;;;;;;;;;;10367865;28;20018;-46
2022/09/28 23:10:17;;;;;;;6.30;1.63;;;;;;;;;;10357527;28;20033;-46
2022/09/28 23:15:18;;;;;;;3.28;1.63;;;;;;;;;;10353986;28;20096;-46
2022/09/28 23:20:20;;;;;;;3.55;1.83;;;;;;;;;;10366337;28;20040;-46
2022/09/28 23:25:20;;;;;;;2.92;1.65;;;;;;;;;;10366858;28;20030;-46
2022/09/28 23:30:23;;;;;;;3.95;1.80;;;;;;;;;;10366596;28;20037;-46
2022/09/28 23:35:24;;;;;;;3.17;1.80;;;;;;;;;;10363761;28;20048;-46
2022/09/28 23:40:24;;;;;;;4.38;1.75;;;;;;;;;;10366512;28;20041;-46
2022/09/28 23:45:25;;;;;;;3.17;1.55;;;;;;;;;;10365706;28;20037;-47
2022/09/28 23:50:27;;;;;;;4.28;1.83;;;;;;;;;;10366389;28;20386;-46
2022/09/28 23:55:27;;;;;;;3.28;1.63;;;;;;;;;;10368662;28;20026;-47
